Time;durP1;ratioP1;P1;durP2;ratioP2;P2;SDS_P1;SDS_P2;PMS_P1;PMS_P2;Temp;Humidity;BMP_temperature;BMP_pressure;BME280_temperature;BME280_humidity;BME280_pressure;Samples;Min_cycle;Max_cycle;Signal;HPM_P1;HPM_P2
2022/08/14 00:00:45;;;;;;;6.65;5.95;;;22.80;82.40;;;;;;5018546;28;20052;-78
2022/08/14 00:03:25;;;;;;;7.85;5.90;;;22.90;82.60;;;;;;5051489;28;20038;-78
2022/08/14 00:05:52;;;;;;;7.90;6.22;;;22.80;82.70;;;;;;5034910;28;20048;-78
2022/08/14 00:08:18;;;;;;;6.70;6.00;;;22.80;82.90;;;;;;5002361;28;20041;-78
2022/08/14 00:10:44;;;;;;;6.32;5.47;;;22.80;83.10;;;;;;5035489;28;20103;-82
2022/08/14 00:13:11;;;;;;;8.70;6.85;;;22.70;83.10;;;;;;5035163;28;20037;-82
2022/08/14 00:15:40;;;;;;;11.52;6.47;;;22.70;83.30;;;;;;5019323;28;20033;-82
2022/08/14 00:18:08;;;;;;;6.78;5.97;;;22.70;83.40;;;;;;5035871;28;20041;-82
2022/08/14 00:20:37;;;;;;;7.15;6.43;;;22.60;83.50;;;;;;5052280;28;20045;-82
2022/08/14 00:23:05;;;;;;;6.68;5.88;;;22.60;83.70;;;;;;5051213;28;20041;-78
2022/08/14 00:25:31;;;;;;;9.50;5.97;;;22.60;84.00;;;;;;5035783;28;20486;-78
2022/08/14 00:27:56;;;;;;;7.05;6.35;;;22.60;84.10;;;;;;5002792;28;20175;-78
2022/08/14 00:30:22;;;;;;;7.07;6.38;;;22.50;84.20;;;;;;5035146;28;20041;-78
2022/08/14 00:32:48;;;;;;;7.60;6.22;;;22.50;84.30;;;;;;5034772;28;20379;-78
2022/08/14 00:35:14;;;;;;;8.75;6.53;;;22.40;84.40;;;;;;5034432;28;20042;-78
2022/08/14 00:37:44;;;;;;;13.35;6.20;;;22.40;84.70;;;;;;5018559;28;20083;-82
2022/08/14 00:40:13;;;;;;;8.60;6.82;;;22.40;85.60;;;;;;5035418;28;20127;-83
2022/08/14 00:42:39;;;;;;;8.05;6.63;;;22.30;84.90;;;;;;5051893;28;20049;-83
2022/08/14 00:45:07;;;;;;;8.57;6.68;;;22.30;85.00;;;;;;5051861;28;20046;-82
2022/08/14 00:47:34;;;;;;;7.38;6.20;;;22.30;85.20;;;;;;5018403;28;20115;-82
2022/08/14 00:50:01;;;;;;;8.40;6.63;;;22.20;85.30;;;;;;5051420;28;20668;-82
2022/08/14 00:52:28;;;;;;;7.25;6.55;;;22.30;85.60;;;;;;5017249;28;20087;-82
2022/08/14 00:54:54;;;;;;;7.50;6.40;;;22.20;85.60;;;;;;5050587;28;20048;-82
2022/08/14 00:57:25;;;;;;;9.02;6.32;;;22.20;85.80;;;;;;5017567;28;20640;-82
2022/08/14 00:59:51;;;;;;;6.95;6.25;;;22.20;86.20;;;;;;5017781;28;20437;-83
2022/08/14 01:02:23;;;;;;;6.68;6.05;;;22.10;86.20;;;;;;5033950;28;20132;-82
2022/08/14 01:04:51;;;;;;;9.18;6.43;;;22.10;86.30;;;;;;5050890;28;20100;-83
2022/08/14 01:07:19;;;;;;;7.38;6.68;;;22.10;86.50;;;;;;5033847;28;20046;-83
2022/08/14 01:10:06;;;;;;;7.25;6.47;;;22.10;86.70;;;;;;5017622;28;20401;-82
2022/08/14 01:12:32;;;;;;;8.07;6.93;;;22.00;87.10;;;;;;5050595;28;20095;-82
2022/08/14 01:15:00;;;;;;;8.00;6.68;;;22.00;86.80;;;;;;5018091;28;20296;-82
2022/08/14 01:21:02;;;;;;;8.20;6.85;;;22.00;87.10;;;;;;5050678;28;20520;-83
2022/08/14 01:22:58;;;;;;;7.47;6.63;;;21.90;87.20;;;;;;5033624;28;20088;-82
2022/08/14 01:25:24;;;;;;;7.45;6.65;;;22.00;87.50;;;;;;5017360;28;20076;-83
2022/08/14 01:27:50;;;;;;;8.25;6.82;;;21.90;87.60;;;;;;5033758;28;20041;-82
2022/08/14 01:30:18;;;;;;;9.68;7.03;;;21.90;87.70;;;;;;5034132;28;20042;-82
2022/08/14 01:32:45;;;;;;;8.65;6.95;;;21.90;87.90;;;;;;5017624;28;20489;-82
2022/08/14 01:35:10;;;;;;;7.40;6.57;;;21.80;88.00;;;;;;5017260;28;20042;-82
2022/08/14 01:37:37;;;;;;;6.80;6.15;;;21.80;88.30;;;;;;5017156;28;20172;-82
2022/08/14 01:40:03;;;;;;;7.55;6.85;;;21.80;88.50;;;;;;5017148;28;20041;-82
2022/08/14 01:42:29;;;;;;;8.98;7.22;;;21.80;88.60;;;;;;5050154;28;20136;-83
2022/08/14 01:44:56;;;;;;;7.75;6.82;;;21.70;88.80;;;;;;5033627;28;20105;-82
2022/08/14 01:47:22;;;;;;;8.35;6.82;;;21.70;89.00;;;;;;5033336;28;20053;-82
2022/08/14 01:49:50;;;;;;;7.22;6.45;;;21.70;89.20;;;;;;5033739;28;20060;-83
2022/08/14 01:52:16;;;;;;;11.43;6.63;;;21.70;89.40;;;;;;5050429;28;20397;-82
2022/08/14 01:54:42;;;;;;;7.45;6.75;;;21.60;89.50;;;;;;5016951;28;20048;-82
2022/08/14 01:57:10;;;;;;;7.35;6.65;;;21.60;89.60;;;;;;5016938;28;20038;-82
2022/08/14 01:59:38;;;;;;;8.45;6.63;;;21.60;89.80;;;;;;5033261;28;20091;-82
2022/08/14 02:02:11;;;;;;;7.88;6.78;;;21.60;89.90;;;;;;5049753;28;20041;-82
2022/08/14 02:04:37;;;;;;;8.35;6.55;;;21.60;90.00;;;;;;5032647;28;20115;-78
2022/08/14 02:07:04;;;;;;;7.35;6.45;;;21.50;90.10;;;;;;5049281;28;20033;-78
2022/08/14 02:09:34;;;;;;;8.52;6.80;;;21.50;90.20;;;;;;5016049;28;20045;-78
2022/08/14 02:12:01;;;;;;;7.40;6.70;;;21.50;90.30;;;;;;5049114;28;20037;-78
2022/08/14 02:14:28;;;;;;;7.15;6.45;;;21.50;90.30;;;;;;5015889;28;20095;-78
2022/08/14 02:16:54;;;;;;;7.45;6.40;;;21.50;90.50;;;;;;5048905;28;20474;-82
2022/08/14 02:19:23;;;;;;;7.72;6.93;;;21.50;90.60;;;;;;5049088;28;20151;-82
2022/08/14 02:21:53;;;;;;;7.10;6.30;;;21.40;90.90;;;;;;5016275;28;20049;-83
2022/08/14 02:24:22;;;;;;;10.75;6.68;;;21.40;90.70;;;;;;5033170;28;20106;-83
2022/08/14 02:26:50;;;;;;;7.78;6.68;;;21.40;90.80;;;;;;5033049;28;20120;-83
2022/08/14 02:29:22;;;;;;;7.40;6.55;;;21.30;90.90;;;;;;5049732;28;20048;-83
2022/08/14 02:31:54;;;;;;;7.20;6.50;;;21.30;91.00;;;;;;5033546;28;20128;-83
2022/08/14 02:34:30;;;;;;;8.75;6.78;;;21.30;91.20;;;;;;5033539;28;20033;-83
2022/08/14 02:37:06;;;;;;;7.22;6.35;;;21.30;91.20;;;;;;5033070;28;20037;-83
2022/08/14 02:39:34;;;;;;;8.43;6.68;;;21.20;91.30;;;;;;5031834;28;20172;-82
2022/08/14 02:41:59;;;;;;;7.95;6.47;;;21.20;91.40;;;;;;5049039;28;20037;-82
2022/08/14 02:44:25;;;;;;;7.65;6.75;;;21.10;91.60;;;;;;5034910;28;20394;-83
2022/08/14 02:46:55;;;;;;;7.97;6.72;;;21.10;91.70;;;;;;5000726;28;20060;-78
2022/08/14 02:49:25;;;;;;;7.70;6.90;;;21.10;91.90;;;;;;5032831;28;20045;-78
2022/08/14 02:51:52;;;;;;;8.20;7.25;;;21.10;92.00;;;;;;5049346;28;20078;-78
2022/08/14 02:54:17;;;;;;;8.98;6.63;;;21.00;92.10;;;;;;5032413;28;20083;-78
2022/08/14 02:56:43;;;;;;;7.55;6.85;;;21.00;92.30;;;;;;5016026;28;20397;-78
2022/08/14 02:59:10;;;;;;;7.82;7.05;;;21.00;92.40;;;;;;5032279;28;20091;-78
2022/08/14 03:01:36;;;;;;;7.28;6.68;;;21.00;92.50;;;;;;5032256;28;20132;-83
2022/08/14 03:04:04;;;;;;;8.35;7.55;;;21.00;92.70;;;;;;5032362;28;20037;-83
2022/08/14 03:06:31;;;;;;;9.02;7.32;;;21.00;92.80;;;;;;5049165;28;20048;-83
2022/08/14 03:08:58;;;;;;;8.57;6.90;;;20.90;92.90;;;;;;5048993;28;20038;-83
2022/08/14 03:11:24;;;;;;;7.45;6.75;;;20.90;93.00;;;;;;5032374;28;20041;-83
2022/08/14 03:13:51;;;;;;;8.27;7.05;;;20.90;93.10;;;;;;5049152;28;20038;-83
2022/08/14 03:16:23;;;;;;;10.15;7.43;;;20.90;93.30;;;;;;5050239;28;20504;-83
2022/08/14 03:18:57;;;;;;;8.65;6.97;;;20.90;93.40;;;;;;5052657;28;20103;-83
2022/08/14 03:21:24;;;;;;;8.02;7.25;;;20.80;93.40;;;;;;5036647;28;20041;-83
2022/08/14 03:24:00;;;;;;;11.10;7.40;;;20.80;93.60;;;;;;5003876;28;20462;-83
2022/08/14 03:26:27;;;;;;;7.65;6.88;;;20.80;93.70;;;;;;5036144;28;20389;-83
2022/08/14 03:28:53;;;;;;;8.52;7.53;;;20.80;93.90;;;;;;5052029;28;20560;-83
2022/08/14 03:31:22;;;;;;;11.00;7.45;;;20.80;94.00;;;;;;5019346;28;20050;-83
2022/08/14 03:33:49;;;;;;;8.43;7.15;;;20.80;94.10;;;;;;5052470;28;20060;-82
2022/08/14 03:36:16;;;;;;;8.15;7.40;;;20.70;94.30;;;;;;5019586;28;20703;-83
2022/08/14 03:38:44;;;;;;;8.48;7.30;;;20.70;94.40;;;;;;5052182;28;20079;-83
2022/08/14 03:41:19;;;;;;;9.38;7.35;;;20.70;94.60;;;;;;5053015;28;20100;-83
2022/08/14 03:43:47;;;;;;;8.07;7.18;;;20.70;94.70;;;;;;5052794;28;20530;-83
2022/08/14 03:46:13;;;;;;;9.13;7.47;;;20.70;94.80;;;;;;5052261;28;20064;-83
2022/08/14 03:48:41;;;;;;;7.72;6.93;;;20.60;94.90;;;;;;5036146;28;20053;-83
2022/08/14 03:51:08;;;;;;;8.23;7.43;;;20.60;95.10;;;;;;5019662;28;20080;-83
2022/08/14 03:53:40;;;;;;;7.55;6.85;;;20.60;95.20;;;;;;5002565;28;20566;-78
2022/08/14 03:56:08;;;;;;;7.75;6.95;;;20.60;95.40;;;;;;5035309;28;20034;-78
2022/08/14 03:58:37;;;;;;;8.77;7.88;;;20.60;95.50;;;;;;5035264;28;20045;-78
2022/08/14 04:01:04;;;;;;;9.68;7.65;;;20.50;95.90;;;;;;5034673;28;20043;-78
2022/08/14 04:03:29;;;;;;;8.27;7.47;;;20.50;95.80;;;;;;5035059;28;20041;-78
2022/08/14 04:05:55;;;;;;;8.98;8.07;;;20.50;95.90;;;;;;5018628;28;20160;-78
2022/08/14 04:08:21;;;;;;;8.65;7.75;;;20.50;96.10;;;;;;5001616;28;20042;-78
2022/08/14 04:10:47;;;;;;;9.23;7.53;;;20.40;96.30;;;;;;5034754;28;20033;-78
2022/08/14 04:13:16;;;;;;;8.85;7.95;;;20.40;96.40;;;;;;5051674;28;20037;-78
2022/08/14 04:15:46;;;;;;;9.60;7.45;;;20.40;96.50;;;;;;5003667;28;20038;-83
2022/08/14 04:18:13;;;;;;;7.63;6.82;;;20.40;96.70;;;;;;5051796;28;20057;-83
2022/08/14 04:20:41;;;;;;;8.68;7.35;;;20.40;96.80;;;;;;5035435;28;20118;-82
2022/08/14 04:23:08;;;;;;;8.20;7.35;;;20.40;96.90;;;;;;5019568;28;20048;-83
2022/08/14 04:25:35;;;;;;;8.07;7.28;;;20.30;97.10;;;;;;5051298;28;20485;-83
2022/08/14 04:28:02;;;;;;;8.30;7.50;;;20.30;97.30;;;;;;5051386;28;20128;-83
2022/08/14 04:30:29;;;;;;;8.70;7.90;;;20.30;97.50;;;;;;5019041;28;20500;-83
2022/08/14 04:32:56;;;;;;;8.88;7.80;;;20.20;97.60;;;;;;5035560;28;20081;-83
2022/08/14 04:35:22;;;;;;;9.40;7.75;;;20.20;97.80;;;;;;5002605;28;20077;-83
2022/08/14 04:43:35;;;;;;;8.45;7.65;;;20.10;98.30;;;;;;5020503;28;20052;-83
2022/08/14 04:46:09;;;;;;;8.48;7.68;;;20.10;98.40;;;;;;5051386;28;20066;-78
2022/08/14 04:48:35;;;;;;;8.50;7.70;;;20.20;98.70;;;;;;5050951;28;20056;-78
2022/08/14 04:51:05;;;;;;;9.52;8.52;;;20.10;98.80;;;;;;5051027;28;20077;-79
2022/08/14 04:53:32;;;;;;;9.20;8.27;;;20.10;99.00;;;;;;5051881;28;20547;-78
2022/08/14 04:55:57;;;;;;;9.45;8.45;;;20.10;99.20;;;;;;5001479;28;20148;-78
2022/08/14 04:58:27;;;;;;;9.38;8.23;;;20.10;99.30;;;;;;5033932;28;20485;-78
2022/08/14 05:00:56;;;;;;;9.45;8.43;;;20.10;99.50;;;;;;5017461;28;20099;-78
2022/08/14 05:03:27;;;;;;;9.15;8.23;;;20.10;99.70;;;;;;5033848;28;20084;-78
2022/08/14 05:05:57;;;;;;;10.48;8.68;;;20.10;99.90;;;;;;5050928;28;20388;-78
2022/08/14 05:08:23;;;;;;;10.30;8.82;;;20.10;99.90;;;;;;5034078;28;20050;-78
2022/08/14 05:10:52;;;;;;;9.55;8.63;;;20.10;99.90;;;;;;5034082;28;20041;-78
2022/08/14 05:13:23;;;;;;;9.48;8.57;;;20.10;99.90;;;;;;5034244;28;20045;-78
2022/08/14 05:15:51;;;;;;;10.02;8.60;;;20.10;99.90;;;;;;5033715;28;20532;-78
2022/08/14 05:18:19;;;;;;;8.82;7.97;;;20.10;99.90;;;;;;5050988;28;20435;-78
2022/08/14 05:20:51;;;;;;;9.25;8.35;;;20.10;99.90;;;;;;5033913;28;20072;-78
2022/08/14 05:23:19;;;;;;;9.63;8.35;;;20.10;99.90;;;;;;5033731;28;20146;-78
2022/08/14 05:25:47;;;;;;;9.27;8.38;;;20.10;99.90;;;;;;5050485;28;20045;-78
2022/08/14 05:28:19;;;;;;;10.75;8.60;;;20.10;99.90;;;;;;5050001;28;20128;-78
2022/08/14 05:30:46;;;;;;;9.70;8.80;;;20.20;99.90;;;;;;5033316;28;20099;-78
2022/08/14 05:33:13;;;;;;;10.40;8.95;;;20.20;99.90;;;;;;5049643;28;20034;-78
2022/08/14 05:35:39;;;;;;;10.75;8.70;;;20.20;99.90;;;;;;5016868;28;20045;-78
2022/08/14 05:38:12;;;;;;;10.13;9.13;;;20.20;99.90;;;;;;5033425;28;20033;-83
2022/08/14 05:40:40;;;;;;;9.63;8.68;;;20.20;99.90;;;;;;5033575;28;20041;-83
2022/08/14 05:43:06;;;;;;;12.00;10.38;;;20.30;99.90;;;;;;5000278;28;20087;-78
2022/08/14 05:45:34;;;;;;;10.25;9.15;;;20.30;99.90;;;;;;5032641;28;20073;-78
2022/08/14 05:48:00;;;;;;;10.77;9.60;;;20.30;99.90;;;;;;5016487;28;20041;-78
2022/08/14 05:50:26;;;;;;;12.45;9.10;;;20.30;99.90;;;;;;4999922;28;20065;-78
2022/08/14 05:52:53;;;;;;;11.85;9.88;;;20.30;99.90;;;;;;4999772;28;20072;-78
2022/08/14 05:55:20;;;;;;;10.35;9.27;;;20.40;99.90;;;;;;5032298;28;20049;-78
2022/08/14 05:57:46;;;;;;;11.05;9.95;;;20.40;99.90;;;;;;5016155;28;20644;-78
2022/08/14 06:00:12;;;;;;;10.27;9.07;;;20.40;99.90;;;;;;5032819;28;20034;-78
2022/08/14 06:02:38;;;;;;;11.45;10.05;;;20.50;99.90;;;;;;5032365;28;20445;-78
2022/08/14 06:05:04;;;;;;;10.27;9.27;;;20.50;99.90;;;;;;5049419;28;20049;-78
2022/08/14 06:07:30;;;;;;;10.55;9.45;;;20.60;99.90;;;;;;5048882;28;20494;-79
2022/08/14 06:09:55;;;;;;;10.07;9.07;;;20.70;99.90;;;;;;5017522;28;20042;-79
2022/08/14 06:12:21;;;;;;;11.13;8.98;;;20.70;99.90;;;;;;5032842;28;20409;-78
2022/08/14 06:14:46;;;;;;;9.77;8.77;;;20.80;99.90;;;;;;5032783;28;20030;-78
2022/08/14 06:17:12;;;;;;;11.63;9.50;;;20.80;99.90;;;;;;5017410;28;20053;-78
2022/08/14 06:19:38;;;;;;;12.02;9.27;;;20.90;99.90;;;;;;5036375;28;20049;-83
2022/08/14 06:22:03;;;;;;;9.73;8.65;;;20.90;99.90;;;;;;5028082;28;20048;-83
2022/08/14 06:24:29;;;;;;;9.25;8.30;;;21.00;99.90;;;;;;5016524;28;20053;-78
2022/08/14 06:26:55;;;;;;;11.15;8.43;;;21.00;99.90;;;;;;5016016;28;20494;-78
2022/08/14 06:29:21;;;;;;;10.23;9.23;;;21.10;99.90;;;;;;5031685;28;20468;-78
2022/08/14 06:31:46;;;;;;;8.68;7.88;;;21.20;99.90;;;;;;5015401;28;20037;-78
2022/08/14 06:34:13;;;;;;;8.48;7.60;;;21.20;99.90;;;;;;5015587;28;20366;-78
2022/08/14 06:36:39;;;;;;;9.05;8.15;;;21.40;99.90;;;;;;5015630;28;20076;-78
2022/08/14 06:39:04;;;;;;;10.75;9.52;;;21.40;99.90;;;;;;5015946;28;20465;-78
2022/08/14 06:41:31;;;;;;;8.90;8.00;;;21.50;99.90;;;;;;5032441;28;20080;-78
2022/08/14 06:43:56;;;;;;;10.25;8.23;;;21.60;99.90;;;;;;5032753;28;20064;-78
2022/08/14 06:46:22;;;;;;;9.13;8.23;;;21.90;99.90;;;;;;5016597;28;20049;-78
2022/08/14 06:48:48;;;;;;;10.07;7.57;;;22.20;99.90;;;;;;5015966;28;20037;-78
2022/08/14 06:51:13;;;;;;;8.02;7.22;;;22.70;99.90;;;;;;5034103;28;20464;-83
2022/08/14 06:53:39;;;;;;;8.02;7.28;;;23.10;99.90;;;;;;5020795;28;20044;-83
2022/08/14 06:56:05;;;;;;;8.75;7.03;;;23.50;99.90;;;;;;5021587;28;20041;-83
2022/08/14 06:58:31;;;;;;;10.57;7.03;;;24.00;99.30;;;;;;5054480;28;20572;-83
2022/08/14 07:06:25;;;;;;;8.90;8.00;;;25.10;97.30;;;;;;5039887;28;20096;-83
2022/08/14 07:08:51;;;;;;;7.50;6.78;;;25.40;96.90;;;;;;5020734;28;20428;-83
2022/08/14 07:11:17;;;;;;;7.80;6.90;;;25.60;96.50;;;;;;5036983;28;20041;-83
2022/08/14 07:13:42;;;;;;;8.13;6.45;;;25.70;95.70;;;;;;5053787;28;20179;-83
2022/08/14 07:16:11;;;;;;;8.73;7.38;;;25.80;95.50;;;;;;5053021;28;20041;-83
2022/08/14 07:18:38;;;;;;;7.55;6.68;;;26.00;95.20;;;;;;5052903;28;20497;-83
2022/08/14 07:21:05;;;;;;;8.25;7.13;;;26.10;94.90;;;;;;5053024;28;20038;-84
2022/08/14 07:23:32;;;;;;;6.82;6.13;;;26.20;94.50;;;;;;5035612;28;20049;-79
2022/08/14 07:26:00;;;;;;;8.18;6.75;;;26.30;94.20;;;;;;5051938;28;20046;-79
2022/08/14 07:28:32;;;;;;;7.72;7.00;;;26.50;93.90;;;;;;5052089;28;20065;-79
2022/08/14 07:31:00;;;;;;;6.85;6.25;;;26.50;93.30;;;;;;5035415;28;20045;-79
2022/08/14 07:33:29;;;;;;;7.25;6.55;;;26.60;93.50;;;;;;5035193;28;20500;-79
2022/08/14 07:35:57;;;;;;;7.10;6.40;;;26.70;93.40;;;;;;5035139;28;20042;-79
2022/08/14 07:38:23;;;;;;;8.25;7.07;;;26.80;93.40;;;;;;5051994;28;20045;-79
2022/08/14 07:40:50;;;;;;;7.13;6.43;;;27.00;93.10;;;;;;5018652;28;20111;-79
2022/08/14 07:43:16;;;;;;;7.00;6.30;;;27.10;93.10;;;;;;5002268;28;20041;-79
2022/08/14 07:45:43;;;;;;;7.03;6.32;;;27.20;93.20;;;;;;5018647;28;20164;-79
2022/08/14 07:48:09;;;;;;;7.40;6.40;;;27.30;92.70;;;;;;5034678;28;20089;-79
2022/08/14 07:50:38;;;;;;;8.07;6.10;;;27.40;92.50;;;;;;5018258;28;20037;-79
2022/08/14 07:53:05;;;;;;;6.97;6.32;;;27.50;92.30;;;;;;5051775;28;20037;-79
2022/08/14 07:55:31;;;;;;;6.68;6.03;;;27.60;92.00;;;;;;5034659;28;20045;-79
2022/08/14 07:57:57;;;;;;;6.82;6.00;;;27.60;91.60;;;;;;5018820;28;20069;-78
2022/08/14 08:00:24;;;;;;;8.55;5.82;;;27.60;91.50;;;;;;5052573;28;20084;-79
2022/08/14 08:02:53;;;;;;;7.55;6.72;;;27.70;91.80;;;;;;5035060;28;20037;-79
2022/08/14 08:05:23;;;;;;;7.78;6.43;;;27.80;91.60;;;;;;5051432;28;20079;-79
2022/08/14 08:07:49;;;;;;;12.57;7.68;;;27.80;91.30;;;;;;5051442;28;20049;-79
2022/08/14 08:10:31;;;;;;;6.55;5.95;;;27.80;90.80;;;;;;5034611;28;20037;-80
2022/08/14 08:13:06;;;;;;;7.03;6.32;;;27.80;90.90;;;;;;5052312;28;20045;-79
2022/08/14 08:15:41;;;;;;;6.63;5.88;;;27.70;91.00;;;;;;5034619;28;20195;-79
2022/08/14 08:18:09;;;;;;;7.82;6.05;;;27.70;90.70;;;;;;5052085;28;20041;-79
2022/08/14 08:20:39;;;;;;;9.00;6.18;;;27.70;91.30;;;;;;5051185;28;20053;-79
2022/08/14 08:23:05;;;;;;;7.18;6.47;;;27.70;91.30;;;;;;5034802;28;20037;-79
2022/08/14 08:25:34;;;;;;;8.20;6.70;;;27.60;91.20;;;;;;5034086;28;20046;-79
2022/08/14 08:28:15;;;;;;;7.90;6.20;;;27.60;90.80;;;;;;5051553;28;20037;-79
2022/08/14 08:30:46;;;;;;;7.80;6.50;;;27.40;91.00;;;;;;5034523;28;20049;-79
2022/08/14 08:33:15;;;;;;;7.75;6.65;;;27.40;91.30;;;;;;5034433;28;20044;-79
2022/08/14 08:35:42;;;;;;;7.05;6.35;;;27.30;91.40;;;;;;5034997;28;20037;-79
2022/08/14 08:38:21;;;;;;;7.72;6.18;;;27.20;91.60;;;;;;5034037;28;20044;-79
2022/08/14 08:40:49;;;;;;;10.07;6.30;;;27.20;92.00;;;;;;5034036;28;20049;-79
2022/08/14 08:43:15;;;;;;;8.90;6.30;;;27.30;91.80;;;;;;5001157;28;20048;-79
2022/08/14 08:45:41;;;;;;;7.90;7.00;;;27.30;91.70;;;;;;5034608;28;20053;-79
2022/08/14 08:48:07;;;;;;;7.65;6.50;;;27.30;91.40;;;;;;5017280;28;20493;-79
2022/08/14 08:50:36;;;;;;;6.72;6.13;;;27.30;90.90;;;;;;5050375;28;20573;-79
2022/08/14 08:53:07;;;;;;;6.63;5.95;;;27.30;90.80;;;;;;5050924;28;20068;-79
2022/08/14 08:55:37;;;;;;;9.52;6.55;;;27.30;90.70;;;;;;5017650;28;20124;-79
2022/08/14 08:58:24;;;;;;;6.78;6.18;;;27.20;90.70;;;;;;5033597;28;20124;-79
2022/08/14 09:00:52;;;;;;;8.07;6.22;;;27.20;90.80;;;;;;5017309;28;20038;-79
2022/08/14 09:03:23;;;;;;;6.82;6.22;;;27.20;90.80;;;;;;5033807;28;20030;-79
2022/08/14 09:05:51;;;;;;;8.70;6.43;;;27.20;90.70;;;;;;5033548;28;20438;-79
2022/08/14 09:08:24;;;;;;;6.25;5.63;;;27.10;90.60;;;;;;5033393;28;20128;-79
2022/08/14 09:10:51;;;;;;;6.03;5.53;;;27.20;90.10;;;;;;5033251;28;20034;-79
2022/08/14 09:13:18;;;;;;;5.78;5.07;;;27.20;90.00;;;;;;5016465;28;20037;-79
2022/08/14 09:15:46;;;;;;;5.72;5.07;;;27.20;90.30;;;;;;5033096;28;20072;-79
2022/08/14 09:18:14;;;;;;;6.10;5.45;;;27.20;89.90;;;;;;5032945;28;20045;-79
2022/08/14 09:20:42;;;;;;;6.47;5.78;;;27.20;88.40;;;;;;5032936;28;20409;-79
2022/08/14 09:23:09;;;;;;;5.70;5.10;;;27.20;88.90;;;;;;5032629;28;20042;-79
2022/08/14 09:25:36;;;;;;;6.55;5.35;;;27.30;87.10;;;;;;5016261;28;20043;-79
2022/08/14 09:28:03;;;;;;;6.65;5.72;;;27.20;87.60;;;;;;5016843;28;20041;-79
2022/08/14 09:30:34;;;;;;;5.03;4.63;;;27.30;88.10;;;;;;5049825;28;20103;-79
2022/08/14 09:33:03;;;;;;;6.53;4.85;;;27.30;88.30;;;;;;5033065;28;20041;-79
2022/08/14 09:35:47;;;;;;;5.88;4.72;;;27.40;88.10;;;;;;5032648;28;20672;-79
2022/08/14 09:38:37;;;;;;;7.10;5.75;;;27.50;87.20;;;;;;5032632;28;20042;-79
2022/08/14 09:41:27;;;;;;;7.65;5.15;;;27.60;87.20;;;;;;5032194;28;20041;-79
2022/08/14 09:44:01;;;;;;;5.05;4.55;;;27.70;86.30;;;;;;5033193;28;20046;-79
2022/08/14 09:46:27;;;;;;;8.47;5.63;;;27.80;86.10;;;;;;5032912;28;20108;-79
2022/08/14 09:49:01;;;;;;;6.65;4.95;;;27.90;86.60;;;;;;5016316;28;20502;-79
2022/08/14 09:51:28;;;;;;;5.93;4.95;;;28.00;86.50;;;;;;5049145;28;20037;-79
2022/08/14 09:54:08;;;;;;;5.97;5.00;;;28.00;85.20;;;;;;5049054;28;20037;-79
2022/08/14 09:56:48;;;;;;;6.45;5.50;;;28.00;84.90;;;;;;5048873;28;20084;-79
2022/08/14 09:59:20;;;;;;;5.50;5.00;;;28.10;83.70;;;;;;5032102;28;20045;-79
2022/08/14 10:01:48;;;;;;;5.65;5.00;;;28.10;84.00;;;;;;5000730;28;20128;-79
2022/08/14 10:04:19;;;;;;;6.40;4.97;;;28.00;85.10;;;;;;5049074;28;20171;-79
2022/08/14 10:06:45;;;;;;;8.23;5.30;;;28.10;85.20;;;;;;5049081;28;20049;-79
2022/08/14 10:09:12;;;;;;;5.55;5.05;;;28.10;83.80;;;;;;5032223;28;20041;-79
2022/08/14 10:11:39;;;;;;;8.30;4.55;;;28.10;83.10;;;;;;5048363;28;20041;-79
2022/08/14 10:14:15;;;;;;;6.57;5.38;;;28.10;82.00;;;;;;5032105;28;20486;-79
2022/08/14 10:16:43;;;;;;;6.00;5.40;;;28.10;82.40;;;;;;5032750;28;20041;-79
2022/08/14 10:19:12;;;;;;;6.28;5.47;;;28.10;82.50;;;;;;5031883;28;20049;-79
2022/08/14 10:21:39;;;;;;;9.07;5.47;;;28.10;82.10;;;;;;5031546;28;20041;-79
2022/08/14 10:24:08;;;;;;;6.03;5.38;;;28.10;81.70;;;;;;5048369;28;20405;-79
2022/08/14 10:26:34;;;;;;;6.00;5.40;;;28.10;82.50;;;;;;5031409;28;20481;-79
2022/08/14 10:29:10;;;;;;;5.75;5.20;;;28.10;82.70;;;;;;5049511;28;20519;-79
2022/08/14 10:31:36;;;;;;;6.90;5.25;;;28.10;83.10;;;;;;5032111;28;20042;-79
2022/08/14 10:34:06;;;;;;;5.88;5.28;;;28.10;83.70;;;;;;5048932;28;20088;-79
2022/08/14 10:36:35;;;;;;;5.88;5.30;;;28.20;84.00;;;;;;5032533;28;20068;-79
2022/08/14 10:39:15;;;;;;;8.40;5.80;;;28.20;83.90;;;;;;5031983;28;20507;-79
2022/08/14 10:41:43;;;;;;;5.45;4.95;;;28.20;82.60;;;;;;5048852;28;20041;-79
2022/08/14 10:44:16;;;;;;;7.55;5.00;;;28.30;82.50;;;;;;4999575;28;20132;-79
2022/08/14 10:46:52;;;;;;;6.30;5.15;;;28.20;82.80;;;;;;5048265;28;20057;-79
2022/08/14 10:49:23;;;;;;;6.40;5.45;;;28.30;82.50;;;;;;5048988;28;20049;-79
2022/08/14 10:52:07;;;;;;;6.93;5.57;;;28.30;82.50;;;;;;5032294;28;20041;-79
2022/08/14 10:54:40;;;;;;;7.15;5.30;;;28.30;81.60;;;;;;5032208;28;20052;-79
2022/08/14 10:57:19;;;;;;;7.10;5.60;;;28.30;81.90;;;;;;5031550;28;20037;-79
2022/08/14 10:59:51;;;;;;;6.05;4.88;;;28.40;80.90;;;;;;5048110;28;20054;-79
2022/08/14 11:02:30;;;;;;;5.95;5.30;;;28.40;81.10;;;;;;5031976;28;20088;-79
2022/08/14 11:05:19;;;;;;;7.18;5.60;;;28.30;81.50;;;;;;5031683;28;20045;-79
2022/08/14 11:07:55;;;;;;;9.65;5.72;;;28.40;81.50;;;;;;5031413;28;20656;-79
2022/08/14 11:10:25;;;;;;;6.15;5.55;;;28.50;81.00;;;;;;5031763;28;20052;-79
2022/08/14 11:12:54;;;;;;;5.63;4.97;;;28.50;81.20;;;;;;5048641;28;20494;-78
2022/08/14 11:15:23;;;;;;;5.80;5.20;;;28.50;81.20;;;;;;5000278;28;20060;-79
2022/08/14 11:17:51;;;;;;;5.45;4.95;;;28.50;80.80;;;;;;5032224;28;20048;-79
2022/08/14 11:20:22;;;;;;;6.03;5.43;;;28.50;79.50;;;;;;5031811;28;20041;-79
2022/08/14 11:22:53;;;;;;;9.02;5.57;;;28.50;78.80;;;;;;5031710;28;20042;-79
2022/08/14 11:25:22;;;;;;;5.80;5.20;;;28.60;79.40;;;;;;5031810;28;20184;-79
2022/08/14 11:27:50;;;;;;;6.22;4.95;;;28.60;78.90;;;;;;5031805;28;20073;-79
2022/08/14 11:30:21;;;;;;;5.88;5.28;;;28.60;79.00;;;;;;5031255;28;20111;-79
2022/08/14 11:32:49;;;;;;;4.85;4.45;;;28.60;78.90;;;;;;5048233;28;20034;-79
2022/08/14 11:35:25;;;;;;;7.40;4.93;;;28.60;79.00;;;;;;5015362;28;20037;-79
2022/08/14 11:38:02;;;;;;;6.57;5.00;;;28.70;79.00;;;;;;5050260;28;20063;-79
2022/08/14 11:40:33;;;;;;;5.47;4.97;;;28.70;78.50;;;;;;5018673;28;20048;-79
2022/08/14 11:43:01;;;;;;;5.45;4.95;;;28.80;77.10;;;;;;5035261;28;20048;-79
2022/08/14 11:45:35;;;;;;;5.70;5.15;;;28.80;76.90;;;;;;5002724;28;20048;-79
2022/08/14 11:48:15;;;;;;;6.35;5.20;;;28.80;76.80;;;;;;5051295;28;20053;-79
2022/08/14 11:50:41;;;;;;;5.45;4.95;;;28.80;76.90;;;;;;5051527;28;20041;-79
2022/08/14 11:53:18;;;;;;;8.23;4.80;;;28.80;76.70;;;;;;5034672;28;20040;-79
2022/08/14 11:55:44;;;;;;;5.30;4.80;;;28.80;76.70;;;;;;5050776;28;20048;-79
2022/08/14 11:58:11;;;;;;;5.45;4.95;;;28.80;76.30;;;;;;5051187;28;20037;-79
2022/08/14 12:00:52;;;;;;;5.18;4.28;;;28.90;75.30;;;;;;5001566;28;20045;-79
2022/08/14 12:03:18;;;;;;;5.25;4.65;;;28.90;75.90;;;;;;5018930;28;20123;-79
2022/08/14 12:05:45;;;;;;;5.63;5.13;;;28.80;76.20;;;;;;5034542;28;20042;-79
2022/08/14 12:08:11;;;;;;;6.90;5.00;;;28.90;76.40;;;;;;5034896;28;20041;-79
2022/08/14 12:10:39;;;;;;;5.20;4.80;;;28.90;77.00;;;;;;5051191;28;20444;-79
2022/08/14 12:13:17;;;;;;;5.28;4.65;;;29.00;77.70;;;;;;5035170;28;20609;-79
2022/08/14 12:15:47;;;;;;;5.13;4.63;;;29.10;76.90;;;;;;5035072;28;20037;-79
2022/08/14 12:18:13;;;;;;;8.35;4.97;;;29.10;76.40;;;;;;5050960;28;20042;-79
2022/08/14 12:20:42;;;;;;;7.32;5.07;;;29.10;75.00;;;;;;5017770;28;20041;-79
2022/08/14 12:23:21;;;;;;;7.30;4.85;;;29.20;75.10;;;;;;5034187;28;20124;-79
2022/08/14 12:25:47;;;;;;;4.85;4.45;;;29.30;75.50;;;;;;5051050;28;20037;-79
2022/08/14 12:28:14;;;;;;;6.55;4.68;;;29.30;75.40;;;;;;5018240;28;20385;-79
2022/08/14 12:30:42;;;;;;;8.30;4.75;;;29.40;75.20;;;;;;5050501;28;20116;-79
2022/08/14 12:33:31;;;;;;;5.18;4.68;;;29.50;74.90;;;;;;5033682;28;20090;-79
2022/08/14 12:36:03;;;;;;;5.22;4.72;;;29.50;74.70;;;;;;5034129;28;20037;-79
2022/08/14 12:38:37;;;;;;;6.85;5.05;;;29.60;74.50;;;;;;5050611;28;20086;-79
2022/08/14 12:41:19;;;;;;;7.63;4.97;;;29.70;73.50;;;;;;5034353;28;20041;-79
2022/08/14 12:43:52;;;;;;;5.82;4.80;;;29.90;73.70;;;;;;5050360;28;20042;-79
2022/08/14 12:46:22;;;;;;;5.45;4.95;;;30.00;72.80;;;;;;5050036;28;20061;-79
2022/08/14 12:48:49;;;;;;;7.03;5.03;;;30.30;70.80;;;;;;5032790;28;20048;-79
2022/08/14 12:51:20;;;;;;;4.90;4.50;;;30.50;70.00;;;;;;5017823;28;20044;-79
2022/08/14 12:53:46;;;;;;;5.50;4.82;;;30.70;70.20;;;;;;5033936;28;20055;-79
2022/08/14 12:56:17;;;;;;;5.32;4.82;;;30.90;71.10;;;;;;5017303;28;20124;-79
2022/08/14 12:58:49;;;;;;;6.93;5.10;;;31.30;70.90;;;;;;5033845;28;20049;-79
2022/08/14 13:01:26;;;;;;;6.70;4.78;;;31.70;70.10;;;;;;5033881;28;20128;-78
2022/08/14 13:04:15;;;;;;;5.15;4.65;;;32.20;69.50;;;;;;5051144;28;20049;-79
2022/08/14 13:06:44;;;;;;;5.13;4.55;;;32.50;69.30;;;;;;5049481;28;20042;-79
2022/08/14 13:09:12;;;;;;;4.82;4.32;;;32.50;68.40;;;;;;5032834;28;20485;-80